weather.gov     
National Weather Service

Terminal Aerodrome Forecast
NWS Homepage
This page is being discontinued on March 12, 2014.
The same data is available at this site. Please update your bookmarks.
Thank you, and we apologize for the inconvenience.
Please send an email to SR-SRH.Webmaster@noaa.gov with any concerns.


Current Version
Previous Version:    01  02  03  04  05  06  07  08  09  10  11  12  13  14  15  16  17  18  19  20  21  22  23  24  25  26  27  28  29  30  
   31  32  33  34  35  36  37  38  39  40  41  42  43  44  45  46  47  48  49  50  51  52  53  54  55  56  57  58  59  60  
[Printable]
673
FTUS45 KBOU 161734
TAFDEN
TAF
KDEN 161734Z 1618/1724 01014G22KT P6SM FEW120 SCT200
     FM162000 03012KT P6SM SCT080 BKN120
     FM162200 06012KT P6SM VCSH SCT060 BKN100
     FM170200 10008KT P6SM VCSH SCT040 OVC080
     FM170600 15007KT P6SM SCT050 BKN080 OVC120
     FM170800 21010KT P6SM FEW060 SCT080 BKN120
     FM171500 20007KT P6SM FEW080 SCT140
     FM171900 17007KT P6SM FEW140 SCT220=


673
FTUS45 KBOU 161734
TAFDEN
TAF
KDEN 161734Z 1618/1724 01014G22KT P6SM FEW120 SCT200
     FM162000 03012KT P6SM SCT080 BKN120
     FM162200 06012KT P6SM VCSH SCT060 BKN100
     FM170200 10008KT P6SM VCSH SCT040 OVC080
     FM170600 15007KT P6SM SCT050 BKN080 OVC120
     FM170800 21010KT P6SM FEW060 SCT080 BKN120
     FM171500 20007KT P6SM FEW080 SCT140
     FM171900 17007KT P6SM FEW140 SCT220=




U.S. Dept. of Commerce
NOAA National Weather Service
1325 East West Highway
Silver Spring, MD 20910
E-mail: w-nws.webmaster@noaa.gov
Page last modified: May 16, 2007
NATIONAL WEATHER SERVICE: for Safety, for Work, for Fun - FOR LIFE